Terminal Aerodrome Forecast
Issued by NWS Flagstaff, AZ

Home | Current Version | Previous Version | Text Only | Print | Product List | Glossary On
Versions: 1 2 3 4 5 6 7 8 9 10 11 12 13 14 15
000
FTUS45 KFGZ 030529
TAFINW
TAF
KINW 030529Z 0306/0406 VRB06KT P6SM FEW120
     FM031800 27010G18KT P6SM FEW130
     FM040200 24007KT P6SM SKC=

USA.gov is the U.S. government's official web portal to all federal, state and local government web resources and services.